Time;durP1;ratioP1;P1;durP2;ratioP2;P2;SDS_P1;SDS_P2;PMS_P1;PMS_P2;Temp;Humidity;BMP_temperature;BMP_pressure;BME280_temperature;BME280_humidity;BME280_pressure;Samples;Min_cycle;Max_cycle;Signal;HPM_P1;HPM_P2
2022/12/03 00:01:40;;;;;;;49.42;23.00;;;;;;;;;;4998685;28;20026;-76
2022/12/03 00:04:06;;;;;;;48.47;23.73;;;;;;;;;;4996728;28;20061;-75
2022/12/03 00:06:32;;;;;;;53.33;24.83;;;;;;;;;;4998030;28;20034;-76
2022/12/03 00:08:58;;;;;;;48.10;24.23;;;;;;;;;;5002904;28;20031;-77
2022/12/03 00:11:24;;;;;;;53.08;24.67;;;;;;;;;;4995408;28;20029;-76
2022/12/03 00:13:50;;;;;;;52.80;23.77;;;;;;;;;;4995960;28;20022;-76
2022/12/03 00:16:16;;;;;;;51.72;23.95;;;;;;;;;;4994177;28;20045;-76
2022/12/03 00:18:42;;;;;;;48.78;23.30;;;;;;;;;;4995396;28;20034;-75
2022/12/03 00:21:08;;;;;;;47.28;23.10;;;;;;;;;;4995119;28;20026;-77
2022/12/03 00:23:34;;;;;;;48.70;23.52;;;;;;;;;;4998915;28;20037;-76
2022/12/03 00:26:00;;;;;;;46.95;23.55;;;;;;;;;;4997536;28;20122;-75
2022/12/03 00:28:26;;;;;;;53.25;23.20;;;;;;;;;;4997471;28;20031;-74
2022/12/03 00:30:52;;;;;;;47.63;22.80;;;;;;;;;;4999348;28;20038;-72
2022/12/03 00:33:19;;;;;;;46.08;22.08;;;;;;;;;;4997232;28;20026;-74
2022/12/03 00:35:45;;;;;;;54.85;23.85;;;;;;;;;;4993959;28;20076;-75
2022/12/03 00:38:11;;;;;;;49.35;23.02;;;;;;;;;;4994911;28;20033;-77
2022/12/03 00:40:37;;;;;;;48.80;23.55;;;;;;;;;;4994665;28;20491;-76
2022/12/03 00:43:03;;;;;;;47.33;23.15;;;;;;;;;;4994710;28;20050;-75
2022/12/03 00:45:29;;;;;;;50.65;24.15;;;;;;;;;;4998954;28;20026;-74
2022/12/03 00:47:55;;;;;;;50.65;23.48;;;;;;;;;;5007284;28;20026;-75
2022/12/03 00:50:21;;;;;;;51.00;23.55;;;;;;;;;;4999346;28;20033;-76
2022/12/03 00:52:48;;;;;;;44.92;22.20;;;;;;;;;;4994212;28;20030;-74
2022/12/03 00:55:14;;;;;;;49.13;22.70;;;;;;;;;;4994409;28;20030;-74
2022/12/03 00:57:41;;;;;;;47.85;23.60;;;;;;;;;;4995048;28;20467;-75
2022/12/03 01:00:07;;;;;;;51.92;23.55;;;;;;;;;;4995207;28;20027;-76
2022/12/03 01:02:33;;;;;;;49.65;24.02;;;;;;;;;;4988865;28;20506;-74
2022/12/03 01:04:59;;;;;;;53.80;23.73;;;;;;;;;;4993335;28;20035;-77
2022/12/03 01:07:25;;;;;;;48.97;22.45;;;;;;;;;;4993272;28;20023;-76
2022/12/03 01:09:51;;;;;;;50.55;23.10;;;;;;;;;;4995445;28;20023;-76
2022/12/03 01:12:17;;;;;;;49.05;22.40;;;;;;;;;;4996354;28;20109;-75
2022/12/03 01:14:42;;;;;;;46.20;23.02;;;;;;;;;;4996531;28;20057;-74
2022/12/03 01:17:08;;;;;;;50.00;23.77;;;;;;;;;;4996922;28;20030;-74
2022/12/03 01:19:35;;;;;;;49.10;22.75;;;;;;;;;;4995906;28;20030;-76
2022/12/03 01:22:01;;;;;;;51.95;23.40;;;;;;;;;;4998470;28;20451;-74
2022/12/03 01:24:27;;;;;;;50.65;23.05;;;;;;;;;;4998724;28;20031;-75
2022/12/03 01:26:54;;;;;;;47.78;22.85;;;;;;;;;;5000260;28;20105;-75
2022/12/03 01:29:20;;;;;;;50.45;22.60;;;;;;;;;;5010077;28;20105;-75
2022/12/03 01:34:31;;;;;;;54.80;22.98;;;;;;;;;;4999514;28;20100;-75
2022/12/03 01:36:57;;;;;;;53.00;23.77;;;;;;;;;;5007234;28;20034;-74
2022/12/03 01:39:23;;;;;;;50.65;22.17;;;;;;;;;;5008769;28;20064;-75
2022/12/03 01:41:50;;;;;;;48.03;22.88;;;;;;;;;;5009944;28;20027;-75
2022/12/03 01:44:18;;;;;;;49.97;23.52;;;;;;;;;;5014284;28;20042;-76
2022/12/03 01:46:44;;;;;;;52.00;23.10;;;;;;;;;;5006336;28;20030;-76
2022/12/03 01:49:14;;;;;;;53.65;22.92;;;;;;;;;;4997333;28;20101;-76
2022/12/03 01:51:40;;;;;;;50.75;23.02;;;;;;;;;;4997984;28;20036;-75
2022/12/03 01:54:14;;;;;;;51.88;24.10;;;;;;;;;;5004760;28;20065;-75
2022/12/03 01:56:39;;;;;;;55.92;24.60;;;;;;;;;;4997825;28;20030;-75
2022/12/03 01:59:05;;;;;;;59.13;24.00;;;;;;;;;;4997337;28;20031;-76
2022/12/03 02:01:31;;;;;;;56.38;24.75;;;;;;;;;;4997035;28;20030;-77
2022/12/03 02:03:57;;;;;;;59.17;25.73;;;;;;;;;;4997050;28;20066;-75
2022/12/03 02:06:27;;;;;;;56.83;25.10;;;;;;;;;;4995813;28;20038;-75
2022/12/03 02:08:58;;;;;;;56.63;24.98;;;;;;;;;;4997182;28;20031;-75
2022/12/03 02:11:24;;;;;;;59.28;25.30;;;;;;;;;;5000517;28;20023;-76
2022/12/03 02:13:51;;;;;;;59.95;25.25;;;;;;;;;;5002261;28;20086;-76
2022/12/03 02:16:17;;;;;;;56.60;24.58;;;;;;;;;;4999900;28;20057;-74
2022/12/03 02:18:43;;;;;;;60.63;25.90;;;;;;;;;;5000921;28;20045;-76
2022/12/03 02:21:16;;;;;;;61.00;24.73;;;;;;;;;;5000231;28;20027;-77
2022/12/03 02:23:54;;;;;;;59.55;24.70;;;;;;;;;;4999291;28;20056;-76
2022/12/03 02:26:20;;;;;;;63.22;25.90;;;;;;;;;;4999416;28;20088;-75
2022/12/03 02:28:46;;;;;;;59.00;26.77;;;;;;;;;;5001291;28;20026;-75
2022/12/03 02:31:12;;;;;;;61.08;25.73;;;;;;;;;;5000797;28;20034;-76
2022/12/03 02:33:38;;;;;;;60.55;24.73;;;;;;;;;;4999530;28;20032;-75
2022/12/03 02:36:04;;;;;;;60.40;26.33;;;;;;;;;;4996173;28;20030;-76
2022/12/03 02:38:31;;;;;;;57.38;24.77;;;;;;;;;;4998283;28;20026;-75
2022/12/03 02:44:04;;;;;;;55.85;23.92;;;;;;;;;;5002533;28;20053;-75
2022/12/03 02:46:30;;;;;;;57.88;24.35;;;;;;;;;;5008722;28;20431;-74
2022/12/03 02:48:56;;;;;;;59.20;24.63;;;;;;;;;;5005249;28;20030;-75
2022/12/03 02:51:22;;;;;;;63.53;24.45;;;;;;;;;;5004889;28;20026;-75
2022/12/03 02:53:49;;;;;;;58.92;24.55;;;;;;;;;;5012988;28;20091;-75
2022/12/03 02:56:18;;;;;;;55.92;24.35;;;;;;;;;;5014269;28;20046;-73
2022/12/03 02:58:44;;;;;;;57.15;24.85;;;;;;;;;;5014916;28;20084;-74
2022/12/03 03:01:11;;;;;;;56.08;24.33;;;;;;;;;;5008857;28;20045;-76
2022/12/03 03:03:37;;;;;;;63.95;25.75;;;;;;;;;;5014751;28;20042;-74
2022/12/03 03:06:05;;;;;;;57.53;24.52;;;;;;;;;;5013261;28;20037;-75
2022/12/03 03:08:31;;;;;;;61.42;25.85;;;;;;;;;;4997097;28;20104;-74
2022/12/03 03:10:59;;;;;;;57.63;25.80;;;;;;;;;;4996179;28;20458;-74
2022/12/03 03:13:25;;;;;;;66.20;25.70;;;;;;;;;;5003609;28;20026;-76
2022/12/03 03:15:51;;;;;;;56.92;25.27;;;;;;;;;;4998093;28;20037;-75
2022/12/03 03:18:17;;;;;;;59.97;25.27;;;;;;;;;;4995341;28;20038;-75
2022/12/03 03:20:44;;;;;;;57.78;24.95;;;;;;;;;;5008193;28;20026;-74
2022/12/03 03:23:12;;;;;;;58.85;25.38;;;;;;;;;;4999087;28;20026;-74
2022/12/03 03:25:39;;;;;;;60.50;24.55;;;;;;;;;;4995485;28;20026;-75
2022/12/03 03:28:05;;;;;;;61.60;25.50;;;;;;;;;;4995629;28;20106;-75
2022/12/03 03:30:32;;;;;;;61.78;24.75;;;;;;;;;;4995464;28;20423;-76
2022/12/03 03:32:58;;;;;;;59.90;24.13;;;;;;;;;;4995120;28;20026;-74
2022/12/03 03:35:24;;;;;;;59.90;24.92;;;;;;;;;;4994783;28;20030;-77
2022/12/03 03:37:52;;;;;;;58.90;24.67;;;;;;;;;;4995420;28;20042;-75
2022/12/03 03:40:18;;;;;;;61.42;24.70;;;;;;;;;;4995497;28;20033;-74
2022/12/03 03:42:44;;;;;;;60.05;24.55;;;;;;;;;;5000931;28;20086;-75
2022/12/03 03:45:10;;;;;;;60.45;24.48;;;;;;;;;;5002025;28;20089;-75
2022/12/03 03:47:36;;;;;;;66.00;25.73;;;;;;;;;;5001196;28;20030;-76
2022/12/03 03:50:02;;;;;;;58.28;25.45;;;;;;;;;;4995365;28;20030;-76
2022/12/03 03:52:29;;;;;;;64.93;26.10;;;;;;;;;;4995000;28;20483;-75
2022/12/03 03:54:55;;;;;;;60.25;25.33;;;;;;;;;;5002879;28;20026;-74
2022/12/03 03:57:21;;;;;;;63.25;25.17;;;;;;;;;;4993854;28;20030;-75
2022/12/03 03:59:47;;;;;;;55.20;24.27;;;;;;;;;;4995093;28;20208;-74
2022/12/03 04:02:24;;;;;;;64.57;26.02;;;;;;;;;;4995175;28;20439;-73
2022/12/03 04:04:50;;;;;;;60.10;24.35;;;;;;;;;;5000896;28;20064;-75
2022/12/03 04:07:16;;;;;;;63.05;25.45;;;;;;;;;;5042478;22;20046;-75
2022/12/03 04:09:42;;;;;;;67.20;26.35;;;;;;;;;;5013941;28;20498;-76
2022/12/03 04:14:54;;;;;;;61.67;25.55;;;;;;;;;;5015351;28;20103;-75
2022/12/03 04:17:19;;;;;;;60.03;25.13;;;;;;;;;;5020373;28;20026;-76
2022/12/03 04:19:45;;;;;;;58.88;25.48;;;;;;;;;;5013514;28;20029;-76
2022/12/03 04:28:47;;;;;;;60.25;25.75;;;;;;;;;;5014274;28;20115;-75
2022/12/03 04:30:26;;;;;;;63.72;25.33;;;;;;;;;;5021924;28;20520;-76
2022/12/03 04:35:43;;;;;;;66.68;26.70;;;;;;;;;;5025061;28;20131;-75
2022/12/03 04:38:09;;;;;;;67.10;26.70;;;;;;;;;;5030144;28;20030;-76
2022/12/03 04:43:20;;;;;;;64.55;27.15;;;;;;;;;;5036003;28;20052;-77
2022/12/03 04:45:46;;;;;;;61.33;26.58;;;;;;;;;;5032859;28;20005;-77
2022/12/03 04:48:12;;;;;;;70.90;26.67;;;;;;;;;;5021745;28;20442;-77
2022/12/03 04:50:38;;;;;;;70.07;26.58;;;;;;;;;;5018218;28;20037;-76
2022/12/03 04:53:04;;;;;;;64.40;26.05;;;;;;;;;;5018121;28;20390;-76
2022/12/03 04:55:30;;;;;;;59.75;24.92;;;;;;;;;;5018038;28;20076;-77
2022/12/03 04:57:56;;;;;;;62.10;25.80;;;;;;;;;;5019728;28;20040;-77
2022/12/03 05:00:22;;;;;;;60.03;25.63;;;;;;;;;;5019945;28;20077;-77
2022/12/03 05:02:48;;;;;;;65.50;26.73;;;;;;;;;;5021617;28;20054;-77
2022/12/03 05:05:14;;;;;;;69.05;28.17;;;;;;;;;;5020930;28;20022;-77
2022/12/03 05:07:41;;;;;;;62.65;25.17;;;;;;;;;;5021703;28;20038;-78
2022/12/03 05:10:07;;;;;;;61.53;24.48;;;;;;;;;;5023896;28;20101;-77
2022/12/03 05:12:33;;;;;;;58.30;25.65;;;;;;;;;;5020841;28;20026;-77
2022/12/03 05:14:59;;;;;;;66.68;26.10;;;;;;;;;;5022346;28;20053;-74
2022/12/03 05:17:25;;;;;;;61.42;25.98;;;;;;;;;;5015898;28;20490;-74
2022/12/03 05:22:36;;;;;;;61.40;24.40;;;;;;;;;;5017209;28;20040;-75
2022/12/03 05:25:02;;;;;;;65.80;26.48;;;;;;;;;;5016700;28;20417;-74
2022/12/03 05:27:27;;;;;;;59.28;23.42;;;;;;;;;;5016315;28;20059;-75
2022/12/03 05:29:53;;;;;;;61.97;24.45;;;;;;;;;;5016917;28;20026;-75
2022/12/03 05:32:19;;;;;;;57.08;22.17;;;;;;;;;;5016924;28;20108;-75
2022/12/03 05:34:45;;;;;;;58.13;24.20;;;;;;;;;;5017102;28;20033;-75
2022/12/03 05:37:11;;;;;;;55.53;23.38;;;;;;;;;;5016470;28;20051;-75
2022/12/03 05:39:37;;;;;;;54.03;22.73;;;;;;;;;;5024536;28;20022;-76
2022/12/03 05:44:48;;;;;;;59.50;23.52;;;;;;;;;;5025032;28;20100;-74
2022/12/03 05:47:14;;;;;;;49.42;22.27;;;;;;;;;;5021903;28;20026;-75
2022/12/03 05:49:40;;;;;;;59.38;23.80;;;;;;;;;;5024361;28;20022;-76
2022/12/03 05:52:06;;;;;;;59.22;23.33;;;;;;;;;;5026660;28;20041;-75
2022/12/03 05:54:32;;;;;;;58.33;22.58;;;;;;;;;;5023504;28;20026;-75
2022/12/03 05:56:57;;;;;;;57.15;24.00;;;;;;;;;;5024779;28;20022;-75
2022/12/03 05:59:23;;;;;;;56.45;23.08;;;;;;;;;;5018740;28;20084;-75
2022/12/03 06:01:49;;;;;;;55.28;23.23;;;;;;;;;;5021314;28;20026;-78
2022/12/03 06:04:15;;;;;;;57.53;23.95;;;;;;;;;;5032526;28;20026;-75
2022/12/03 06:06:41;;;;;;;62.42;25.05;;;;;;;;;;5037831;28;20033;-76
2022/12/03 06:09:07;;;;;;;56.13;23.95;;;;;;;;;;5035660;28;20056;-77
2022/12/03 06:11:35;;;;;;;63.67;25.35;;;;;;;;;;5025256;28;20022;-77
2022/12/03 06:14:01;;;;;;;55.13;22.73;;;;;;;;;;5019629;28;20026;-77
2022/12/03 06:16:27;;;;;;;64.80;25.60;;;;;;;;;;5019881;28;20423;-78
2022/12/03 06:18:53;;;;;;;60.40;23.77;;;;;;;;;;5018436;28;20414;-77
2022/12/03 06:21:19;;;;;;;61.45;24.80;;;;;;;;;;5015808;28;20022;-76
2022/12/03 06:23:45;;;;;;;63.08;23.23;;;;;;;;;;5016566;28;20030;-75
2022/12/03 06:26:11;;;;;;;66.35;24.15;;;;;;;;;;5015514;28;20022;-77
2022/12/03 06:28:37;;;;;;;60.63;24.40;;;;;;;;;;5015705;28;20022;-76
2022/12/03 06:31:03;;;;;;;53.83;23.38;;;;;;;;;;5014327;28;20021;-76
2022/12/03 06:33:29;;;;;;;66.70;25.02;;;;;;;;;;5015470;28;20034;-76
2022/12/03 06:35:55;;;;;;;58.45;24.10;;;;;;;;;;5015161;28;20061;-74
2022/12/03 06:38:21;;;;;;;63.60;25.23;;;;;;;;;;5015458;28;20049;-75
2022/12/03 06:40:48;;;;;;;66.53;24.73;;;;;;;;;;5014683;28;20469;-77
2022/12/03 06:43:14;;;;;;;64.38;26.00;;;;;;;;;;5024003;28;20050;-75
2022/12/03 06:45:40;;;;;;;71.13;27.77;;;;;;;;;;5035107;28;20022;-77
2022/12/03 06:48:07;;;;;;;62.40;24.90;;;;;;;;;;5036673;28;20076;-77
2022/12/03 06:50:32;;;;;;;68.90;26.70;;;;;;;;;;5036214;28;20101;-77
2022/12/03 06:52:58;;;;;;;65.55;26.42;;;;;;;;;;5036942;28;20232;-76
2022/12/03 06:55:24;;;;;;;70.10;26.65;;;;;;;;;;5036443;28;20037;-77
2022/12/03 06:57:50;;;;;;;66.68;24.88;;;;;;;;;;5019470;28;20021;-75
2022/12/03 07:00:16;;;;;;;67.25;25.88;;;;;;;;;;5014981;28;20390;-75
2022/12/03 07:02:43;;;;;;;63.85;25.83;;;;;;;;;;5015327;28;20128;-75
2022/12/03 07:05:09;;;;;;;66.00;26.80;;;;;;;;;;5015901;28;20056;-76
2022/12/03 07:07:35;;;;;;;65.03;26.65;;;;;;;;;;5014855;28;20037;-74
2022/12/03 07:10:02;;;;;;;64.80;26.88;;;;;;;;;;5013869;28;20116;-75
2022/12/03 07:12:28;;;;;;;74.25;28.75;;;;;;;;;;5014944;28;20064;-75
2022/12/03 07:14:53;;;;;;;69.90;27.30;;;;;;;;;;5014789;28;20030;-74
2022/12/03 07:17:19;;;;;;;71.10;27.35;;;;;;;;;;5017414;28;20026;-76
2022/12/03 07:19:45;;;;;;;66.60;27.95;;;;;;;;;;5017166;28;20053;-77
2022/12/03 07:22:11;;;;;;;72.82;28.67;;;;;;;;;;5014586;28;20026;-76
2022/12/03 07:24:37;;;;;;;66.40;27.48;;;;;;;;;;5014489;28;20161;-75
2022/12/03 07:27:03;;;;;;;70.22;28.20;;;;;;;;;;5012308;28;20119;-75
2022/12/03 07:29:29;;;;;;;70.03;28.15;;;;;;;;;;5014386;28;20061;-76
2022/12/03 07:31:55;;;;;;;65.90;28.40;;;;;;;;;;5014532;28;20026;-77
2022/12/03 07:34:21;;;;;;;70.30;29.15;;;;;;;;;;5014690;28;20057;-77
2022/12/03 07:36:47;;;;;;;67.63;28.60;;;;;;;;;;5014024;28;20391;-75
2022/12/03 07:39:13;;;;;;;72.55;27.35;;;;;;;;;;5014349;28;20030;-74
2022/12/03 07:41:39;;;;;;;71.43;28.23;;;;;;;;;;5014515;28;20087;-73
2022/12/03 07:44:05;;;;;;;70.10;29.50;;;;;;;;;;5013954;28;20029;-73
2022/12/03 07:46:31;;;;;;;67.45;28.25;;;;;;;;;;5013188;28;20430;-73
2022/12/03 07:48:57;;;;;;;68.32;27.85;;;;;;;;;;5014426;28;20030;-72
2022/12/03 07:51:23;;;;;;;73.50;29.35;;;;;;;;;;5013697;28;20066;-73
2022/12/03 07:53:49;;;;;;;73.30;30.40;;;;;;;;;;5014334;28;20600;-75
2022/12/03 07:56:15;;;;;;;74.18;29.05;;;;;;;;;;5014528;28;20026;-74
2022/12/03 07:58:41;;;;;;;76.30;29.70;;;;;;;;;;5015759;28;20037;-74
2022/12/03 08:01:07;;;;;;;71.07;30.02;;;;;;;;;;5014866;28;20033;-73
2022/12/03 08:03:33;;;;;;;73.07;30.42;;;;;;;;;;5013875;28;20401;-74
2022/12/03 08:05:59;;;;;;;73.88;29.33;;;;;;;;;;5013912;28;20124;-77
2022/12/03 08:08:25;;;;;;;72.40;29.30;;;;;;;;;;5013410;28;20042;-74
2022/12/03 08:10:51;;;;;;;76.78;29.98;;;;;;;;;;5014189;28;20030;-73
2022/12/03 08:13:18;;;;;;;74.65;29.90;;;;;;;;;;5014015;28;20490;-75
2022/12/03 08:15:44;;;;;;;75.00;30.35;;;;;;;;;;5013635;28;20545;-77
2022/12/03 08:18:17;;;;;;;80.03;31.30;;;;;;;;;;5013780;28;20034;-74
2022/12/03 08:20:43;;;;;;;75.38;30.42;;;;;;;;;;5014338;28;20033;-74
2022/12/03 08:23:12;;;;;;;71.05;29.88;;;;;;;;;;5013971;28;20029;-76
2022/12/03 08:25:38;;;;;;;75.95;29.05;;;;;;;;;;5012154;28;20402;-75
2022/12/03 08:28:10;;;;;;;73.25;28.58;;;;;;;;;;5010782;28;20104;-75
2022/12/03 08:30:36;;;;;;;75.88;30.30;;;;;;;;;;5013772;28;20018;-74
2022/12/03 08:33:06;;;;;;;72.13;29.20;;;;;;;;;;5013846;28;20407;-75
2022/12/03 08:35:32;;;;;;;74.88;30.83;;;;;;;;;;5013360;28;20033;-74
2022/12/03 08:38:05;;;;;;;73.75;29.30;;;;;;;;;;5013638;28;20386;-75
2022/12/03 08:40:34;;;;;;;77.88;29.92;;;;;;;;;;5014070;28;20368;-76
2022/12/03 08:43:00;;;;;;;65.20;28.45;;;;;;;;;;5013860;28;20029;-74
2022/12/03 08:45:33;;;;;;;76.97;30.17;;;;;;;;;;5013342;28;20030;-76
2022/12/03 08:48:01;;;;;;;80.70;31.23;;;;;;;;;;5012916;28;20224;-75
2022/12/03 08:50:32;;;;;;;78.57;29.38;;;;;;;;;;5017029;28;20036;-74
2022/12/03 08:53:00;;;;;;;72.47;29.85;;;;;;;;;;5025918;28;20052;-73
2022/12/03 08:55:33;;;;;;;75.50;30.10;;;;;;;;;;5031681;28;20113;-74
2022/12/03 08:57:59;;;;;;;74.97;29.58;;;;;;;;;;5020594;28;20036;-74
2022/12/03 09:00:25;;;;;;;74.88;30.13;;;;;;;;;;5027962;28;20061;-75
2022/12/03 09:02:52;;;;;;;82.15;29.27;;;;;;;;;;5028406;28;20628;-74
2022/12/03 09:05:20;;;;;;;73.03;28.30;;;;;;;;;;5026993;28;20026;-74
2022/12/03 09:07:46;;;;;;;66.45;28.88;;;;;;;;;;5019338;28;20080;-74
2022/12/03 09:10:12;;;;;;;70.75;29.25;;;;;;;;;;5014913;28;20575;-75
2022/12/03 09:12:38;;;;;;;74.65;30.05;;;;;;;;;;5015645;28;20037;-75
2022/12/03 09:15:04;;;;;;;77.30;29.60;;;;;;;;;;5014941;28;20109;-76
2022/12/03 09:17:30;;;;;;;74.38;31.45;;;;;;;;;;5014742;28;20030;-76
2022/12/03 09:19:56;;;;;;;76.22;32.03;;;;;;;;;;5014199;28;20376;-76
2022/12/03 09:22:22;;;;;;;77.30;31.02;;;;;;;;;;5015031;28;20069;-76
2022/12/03 09:24:48;;;;;;;67.53;29.35;;;;;;;;;;5015828;28;20032;-75
2022/12/03 09:27:14;;;;;;;70.03;29.33;;;;;;;;;;5015789;28;20089;-75
2022/12/03 09:29:40;;;;;;;66.72;27.58;;;;;;;;;;5022316;28;20022;-79
2022/12/03 09:32:06;;;;;;;66.05;26.75;;;;;;;;;;5018116;28;20475;-76
2022/12/03 09:34:33;;;;;;;70.15;29.73;;;;;;;;;;5017860;28;20026;-76
2022/12/03 09:36:59;;;;;;;70.97;29.38;;;;;;;;;;5019064;28;20056;-75
2022/12/03 09:39:25;;;;;;;69.15;29.73;;;;;;;;;;5018331;28;20030;-77
2022/12/03 09:41:51;;;;;;;70.85;28.08;;;;;;;;;;5018165;28;20022;-75
2022/12/03 09:44:17;;;;;;;70.60;29.30;;;;;;;;;;5019149;28;20026;-76
2022/12/03 09:46:43;;;;;;;70.13;27.85;;;;;;;;;;5030597;28;20068;-75
2022/12/03 09:49:10;;;;;;;74.82;28.90;;;;;;;;;;5032077;28;20029;-76
2022/12/03 09:51:36;;;;;;;64.32;27.10;;;;;;;;;;5030612;28;20045;-74
2022/12/03 09:54:03;;;;;;;64.38;27.25;;;;;;;;;;5014959;28;20040;-76
2022/12/03 09:56:29;;;;;;;61.38;26.20;;;;;;;;;;5021128;28;20026;-76
2022/12/03 09:58:55;;;;;;;81.75;32.35;;;;;;;;;;5022091;28;20053;-76
2022/12/03 10:01:21;;;;;;;71.28;29.80;;;;;;;;;;5019123;28;20053;-75
2022/12/03 10:03:49;;;;;;;61.55;26.52;;;;;;;;;;5021988;28;20026;-74
2022/12/03 10:06:19;;;;;;;63.30;27.63;;;;;;;;;;5019111;28;20025;-76
2022/12/03 10:08:50;;;;;;;56.47;25.67;;;;;;;;;;5025028;28;20060;-75
2022/12/03 10:11:17;;;;;;;62.15;27.10;;;;;;;;;;5036313;28;20018;-76
2022/12/03 10:13:43;;;;;;;58.72;25.58;;;;;;;;;;5029445;28;20097;-76
2022/12/03 10:16:11;;;;;;;56.22;25.65;;;;;;;;;;5023530;28;20029;-75
2022/12/03 10:18:39;;;;;;;61.83;26.50;;;;;;;;;;5026142;28;20030;-73
2022/12/03 10:21:12;;;;;;;61.03;26.05;;;;;;;;;;5029828;28;20034;-74
2022/12/03 10:23:40;;;;;;;65.57;25.67;;;;;;;;;;5017207;28;20030;-75
2022/12/03 10:26:06;;;;;;;59.08;26.95;;;;;;;;;;5016201;28;20197;-75
2022/12/03 10:28:36;;;;;;;57.60;25.38;;;;;;;;;;5016521;28;20466;-75
2022/12/03 10:31:04;;;;;;;61.25;25.42;;;;;;;;;;5017211;28;20113;-74
2022/12/03 10:33:31;;;;;;;58.63;25.30;;;;;;;;;;5016721;28;20033;-75
2022/12/03 10:36:13;;;;;;;63.15;27.58;;;;;;;;;;5015928;28;20033;-73
2022/12/03 10:38:39;;;;;;;62.08;26.90;;;;;;;;;;5015541;28;20092;-75
2022/12/03 10:41:19;;;;;;;65.22;28.20;;;;;;;;;;5016280;28;20025;-75
2022/12/03 10:43:45;;;;;;;59.38;25.45;;;;;;;;;;5015273;28;20034;-74
2022/12/03 10:46:12;;;;;;;64.72;27.27;;;;;;;;;;5015823;28;20030;-73
2022/12/03 10:48:38;;;;;;;60.67;25.48;;;;;;;;;;5020533;28;20026;-75
2022/12/03 10:51:05;;;;;;;62.13;26.88;;;;;;;;;;5021162;28;20018;-75
2022/12/03 10:53:32;;;;;;;64.05;26.50;;;;;;;;;;5021674;28;20072;-72
2022/12/03 10:56:00;;;;;;;57.42;25.30;;;;;;;;;;5017739;28;20030;-75
2022/12/03 10:58:37;;;;;;;65.57;26.90;;;;;;;;;;5021511;28;20032;-75
2022/12/03 11:01:05;;;;;;;65.10;27.23;;;;;;;;;;5029604;28;20041;-75
2022/12/03 11:03:35;;;;;;;64.30;26.73;;;;;;;;;;5038986;28;20030;-75
2022/12/03 11:06:02;;;;;;;62.30;27.20;;;;;;;;;;5038786;28;20036;-76
2022/12/03 11:08:44;;;;;;;62.00;26.65;;;;;;;;;;5006467;28;20042;-76
2022/12/03 11:11:23;;;;;;;59.60;26.05;;;;;;;;;;5038351;28;20013;-75
2022/12/03 11:13:50;;;;;;;61.90;25.95;;;;;;;;;;5030440;28;20037;-76
2022/12/03 11:16:35;;;;;;;63.17;26.33;;;;;;;;;;5027714;28;20033;-77
2022/12/03 11:19:01;;;;;;;68.13;26.98;;;;;;;;;;5015438;28;20149;-75
2022/12/03 11:21:28;;;;;;;63.33;27.08;;;;;;;;;;5015479;28;20285;-74
2022/12/03 11:23:54;;;;;;;62.03;25.92;;;;;;;;;;5017244;28;20026;-75
2022/12/03 11:26:29;;;;;;;59.55;26.00;;;;;;;;;;5017386;28;20108;-75
2022/12/03 11:28:56;;;;;;;60.33;26.50;;;;;;;;;;5017826;28;20049;-76
2022/12/03 11:31:42;;;;;;;63.63;26.42;;;;;;;;;;5015755;28;20049;-75
2022/12/03 11:34:17;;;;;;;62.03;25.77;;;;;;;;;;5022752;28;20104;-75
2022/12/03 11:37:02;;;;;;;61.33;25.77;;;;;;;;;;5021825;28;20478;-76
2022/12/03 11:39:28;;;;;;;;;;;;;;;;;;5017945;28;20037;-75
2022/12/03 11:42:24;;;;;;;55.03;24.25;;;;;;;;;;5014747;28;19913;-75
2022/12/03 11:45:10;;;;;;;61.67;26.45;;;;;;;;;;5005485;28;20046;-75
2022/12/03 11:47:38;;;;;;;53.67;25.75;;;;;;;;;;5016178;28;20022;-75
2022/12/03 11:50:20;;;;;;;64.15;26.17;;;;;;;;;;5021796;28;20033;-75
2022/12/03 11:52:47;;;;;;;69.82;26.90;;;;;;;;;;5018205;28;20037;-76
2022/12/03 11:55:33;;;;;;;65.65;26.48;;;;;;;;;;5025448;28;20026;-76
2022/12/03 11:58:03;;;;;;;71.25;26.98;;;;;;;;;;5018183;28;20022;-76
2022/12/03 12:00:30;;;;;;;60.92;26.58;;;;;;;;;;5015553;28;20026;-75
2022/12/03 12:02:56;;;;;;;58.65;25.23;;;;;;;;;;5020262;28;20032;-74
2022/12/03 12:05:27;;;;;;;61.72;26.48;;;;;;;;;;5014447;28;20118;-75
2022/12/03 12:07:54;;;;;;;60.88;25.98;;;;;;;;;;5018542;28;20034;-75
2022/12/03 12:10:38;;;;;;;63.15;26.85;;;;;;;;;;5015876;28;20029;-76
2022/12/03 12:13:04;;;;;;;62.78;27.58;;;;;;;;;;5015829;28;20030;-76
2022/12/03 12:15:42;;;;;;;62.05;25.65;;;;;;;;;;5022619;28;20041;-76
2022/12/03 12:18:27;;;;;;;64.18;26.83;;;;;;;;;;5019305;28;20391;-76
2022/12/03 12:20:53;;;;;;;56.50;25.40;;;;;;;;;;5022464;28;20036;-76
2022/12/03 12:23:27;;;;;;;62.88;25.38;;;;;;;;;;5020218;28;20021;-76
2022/12/03 12:25:53;;;;;;;61.80;25.80;;;;;;;;;;5027386;28;20129;-75
2022/12/03 12:28:19;;;;;;;61.20;26.35;;;;;;;;;;5030916;28;20104;-75
2022/12/03 12:30:45;;;;;;;59.85;25.65;;;;;;;;;;5032114;28;20089;-75
2022/12/03 12:33:11;;;;;;;55.53;24.83;;;;;;;;;;5017369;28;20041;-76
2022/12/03 12:35:37;;;;;;;59.05;24.92;;;;;;;;;;5020153;28;20113;-76
2022/12/03 12:38:06;;;;;;;59.45;25.38;;;;;;;;;;5016791;28;20080;-76
2022/12/03 12:40:33;;;;;;;59.75;25.20;;;;;;;;;;5014772;28;20083;-76
2022/12/03 12:43:15;;;;;;;62.67;26.48;;;;;;;;;;5016804;28;20021;-75
2022/12/03 12:45:42;;;;;;;61.33;26.13;;;;;;;;;;5016914;28;20033;-76
2022/12/03 12:48:14;;;;;;;61.58;27.40;;;;;;;;;;5019599;28;20018;-76
2022/12/03 12:50:41;;;;;;;64.82;27.70;;;;;;;;;;5019108;28;20026;-76
2022/12/03 12:53:25;;;;;;;67.63;26.65;;;;;;;;;;5043755;28;20091;-75
2022/12/03 12:55:54;;;;;;;65.57;26.45;;;;;;;;;;5035461;28;20041;-76
2022/12/03 12:58:21;;;;;;;61.17;26.55;;;;;;;;;;5036436;28;20017;-75
2022/12/03 13:00:52;;;;;;;60.33;26.75;;;;;;;;;;5032396;28;20087;-76
2022/12/03 13:03:19;;;;;;;64.00;27.48;;;;;;;;;;5017878;28;20511;-76
2022/12/03 13:05:46;;;;;;;63.58;26.35;;;;;;;;;;5014582;28;20097;-76
2022/12/03 13:08:18;;;;;;;60.13;25.73;;;;;;;;;;5012435;28;20030;-76
2022/12/03 13:10:44;;;;;;;64.90;26.63;;;;;;;;;;5013242;28;20092;-75
2022/12/03 13:13:16;;;;;;;62.60;27.08;;;;;;;;;;5012382;28;20029;-76
2022/12/03 13:15:47;;;;;;;60.80;25.83;;;;;;;;;;5012395;28;20057;-75
2022/12/03 13:18:21;;;;;;;61.60;25.95;;;;;;;;;;5015576;28;20030;-76
2022/12/03 13:20:47;;;;;;;67.07;27.73;;;;;;;;;;5020435;28;20080;-75
2022/12/03 13:23:33;;;;;;;59.58;25.00;;;;;;;;;;5022416;28;20091;-75
2022/12/03 13:26:00;;;;;;;67.32;26.75;;;;;;;;;;5021302;28;20057;-76
2022/12/03 13:28:28;;;;;;;58.65;25.60;;;;;;;;;;5017762;28;20529;-76
2022/12/03 13:30:54;;;;;;;58.80;26.27;;;;;;;;;;5013517;28;20018;-75
2022/12/03 13:33:26;;;;;;;62.92;28.10;;;;;;;;;;5013909;28;20052;-76
2022/12/03 13:35:53;;;;;;;60.80;26.45;;;;;;;;;;5015168;28;20072;-76
2022/12/03 13:38:20;;;;;;;62.30;27.05;;;;;;;;;;5015243;28;20022;-76
2022/12/03 13:40:50;;;;;;;65.30;26.52;;;;;;;;;;5014173;28;20026;-76
2022/12/03 13:43:18;;;;;;;65.55;26.63;;;;;;;;;;5016352;28;20030;-76
2022/12/03 13:45:48;;;;;;;63.90;27.73;;;;;;;;;;5017555;28;20549;-76
2022/12/03 13:48:14;;;;;;;62.58;25.73;;;;;;;;;;5019939;28;20034;-76
2022/12/03 13:50:43;;;;;;;60.03;26.27;;;;;;;;;;5019624;28;20118;-76
2022/12/03 13:53:20;;;;;;;70.05;26.30;;;;;;;;;;5019192;28;20022;-77
2022/12/03 13:55:47;;;;;;;62.08;25.17;;;;;;;;;;5017480;28;20022;-76
2022/12/03 13:58:13;;;;;;;63.70;26.55;;;;;;;;;;5017295;28;20041;-76
2022/12/03 14:00:39;;;;;;;60.63;25.98;;;;;;;;;;5016401;28;20033;-76
2022/12/03 14:03:05;;;;;;;60.03;25.70;;;;;;;;;;5017997;28;20026;-76
2022/12/03 14:05:31;;;;;;;61.88;25.20;;;;;;;;;;5015381;28;20077;-75
2022/12/03 14:08:00;;;;;;;65.88;26.58;;;;;;;;;;5017757;28;20037;-75
2022/12/03 14:10:26;;;;;;;62.83;26.85;;;;;;;;;;5018063;28;20057;-76
2022/12/03 14:12:52;;;;;;;64.10;27.35;;;;;;;;;;5018069;28;20037;-76
2022/12/03 14:15:18;;;;;;;70.15;26.83;;;;;;;;;;5031160;28;20100;-76
2022/12/03 14:17:44;;;;;;;58.78;25.17;;;;;;;;;;5032970;28;20053;-76
2022/12/03 14:20:10;;;;;;;63.83;25.60;;;;;;;;;;5029055;28;20040;-75
2022/12/03 14:22:39;;;;;;;61.22;26.02;;;;;;;;;;5024004;28;20491;-76
2022/12/03 14:25:06;;;;;;;56.30;24.88;;;;;;;;;;5016009;28;20167;-77
2022/12/03 14:27:32;;;;;;;59.38;25.67;;;;;;;;;;5017894;28;20644;-76
2022/12/03 14:29:58;;;;;;;60.90;25.90;;;;;;;;;;5016039;28;20100;-76
2022/12/03 14:32:24;;;;;;;60.95;25.83;;;;;;;;;;5019435;28;20033;-77
2022/12/03 14:34:50;;;;;;;64.57;26.55;;;;;;;;;;5018282;28;20685;-76
2022/12/03 14:37:16;;;;;;;77.68;27.50;;;;;;;;;;5017791;28;20030;-76
2022/12/03 14:39:42;;;;;;;62.80;27.48;;;;;;;;;;5019032;28;20026;-77
2022/12/03 14:42:11;;;;;;;59.60;25.90;;;;;;;;;;5020179;28;20499;-77
2022/12/03 14:44:38;;;;;;;56.83;24.90;;;;;;;;;;5018910;28;20026;-76
2022/12/03 14:47:04;;;;;;;69.45;27.15;;;;;;;;;;5018123;28;20052;-76